Trumann, Arkansas
Current Conditions -  °F | °C
As of 8:53 AM on Wednesday 22 Oct 2014 (Local Time) from KJBR Reporting Station
Clear Clear  
Wind Chill: 53°   Ceiling: Unl
Heat Index: 53°   Visibility: 10mi
Dew Point: 46°   Wind: 10mph
Humidity: 77%   Direction: 50°NE
Pressure: 30.26"   Gusts: NA
Location:  35.66°N, 90.51°W
Report Text: KJBR 221353Z AUTO 05009KT 10SM CLR 12/08 A3026 RMK AO2 SLP247 T01170078
Loading
Personal Weather Stations






























Interactive Weather Map
Tropical Storm Tracking
New forecast layout! Learn more

10-Day Weather Forecast

Advertisements
Track Severe Weather on mobile